GCXO/TFN METAR and TAF weather

Enter ICAO airport designator
Station Type Date Time Source
GCXO METAR 2020/07/06 02:30 UTC NOAA

GCXO 060230Z AUTO 19003KT 160V220 CAVOK 21/07 Q1017


Station Type Date Time Source
GCXO Decoded METAR 2020/07/06 02:30 UTC NOAA

Tenerife / Los Rodeos, Spain (GCXO) 28-28N 016-19W 617M
Jul 05, 2020 - 10:30 PM EDT / 2020.07.06 0230 UTC
Wind: from the S (190 degrees) at 3 MPH (3 KT) (direction variable):0
Visibility: greater than 7 mile(s):0
Temperature: 69 F (21 C)
Dew Point: 44 F (7 C)
Relative Humidity: 40%
Pressure (altimeter): 30.03 in. Hg (1017 hPa)
ob: GCXO 060230Z AUTO 19003KT 160V220 CAVOK 21/07 Q1017
cycle: 2

Station Type Date Time Source
GCXO TAF 2020/07/06 03:27 UTC NOAA

TAF GCXO 060200Z 0603/0703 30015KT CAVOK TX30/0614Z TN20/0603Z PROB40
TEMPO 0603/0609 VRB04KT

Example: see airport list